createdAt,value
2024-01-09T00:00:37.135Z,604.00
2024-01-09T00:01:37.131Z,600.00
2024-01-09T00:02:37.175Z,602.00
2024-01-09T00:03:37.196Z,600.00
2024-01-09T00:04:37.271Z,604.00
2024-01-09T00:05:37.381Z,602.00
2024-01-09T00:06:37.309Z,604.00
2024-01-09T00:07:37.294Z,601.00
2024-01-09T00:08:37.367Z,605.00
2024-01-09T00:09:37.342Z,604.00
2024-01-09T00:10:37.370Z,605.00
2024-01-09T00:11:37.410Z,607.00
2024-01-09T00:12:37.414Z,607.00
2024-01-09T00:13:37.439Z,602.00
2024-01-09T00:14:38.384Z,601.00
2024-01-09T00:15:37.494Z,605.00
2024-01-09T00:16:37.534Z,604.00
2024-01-09T00:17:37.593Z,604.00
2024-01-09T00:18:37.738Z,601.00
2024-01-09T00:19:37.622Z,603.00
2024-01-09T00:20:37.628Z,604.00
2024-01-09T00:21:37.652Z,600.00
2024-01-09T00:22:37.664Z,608.00
2024-01-09T00:23:37.703Z,605.00
2024-01-09T00:24:37.714Z,603.00
2024-01-09T00:25:37.748Z,604.00
2024-01-09T00:26:37.785Z,605.00
2024-01-09T00:27:37.832Z,605.00
2024-01-09T00:28:37.820Z,601.00
2024-01-09T00:29:37.899Z,600.00
2024-01-09T00:30:37.902Z,605.00
2024-01-09T00:31:37.970Z,603.00
2024-01-09T00:32:38.017Z,602.00
2024-01-09T00:33:38.253Z,605.00
2024-01-09T00:34:38.039Z,604.00
2024-01-09T00:35:38.091Z,602.00
2024-01-09T00:36:38.038Z,604.00
2024-01-09T00:37:38.102Z,604.00
2024-01-09T00:38:38.208Z,604.00
2024-01-09T00:39:38.126Z,603.00
2024-01-09T00:40:38.160Z,602.00
2024-01-09T00:41:38.196Z,602.00
2024-01-09T00:42:38.833Z,601.00
2024-01-09T00:43:38.251Z,605.00
2024-01-09T00:44:38.321Z,603.00
2024-01-09T00:45:39.518Z,607.00
2024-01-09T00:46:38.357Z,604.00
2024-01-09T00:47:38.521Z,603.00
2024-01-09T00:48:38.505Z,602.00
2024-01-09T00:49:38.531Z,604.00
2024-01-09T00:50:38.485Z,601.00
2024-01-09T00:51:38.492Z,602.00
2024-01-09T00:52:38.572Z,603.00
2024-01-09T00:53:38.576Z,606.00
2024-01-09T00:54:38.577Z,602.00
2024-01-09T00:55:38.614Z,604.00
2024-01-09T00:56:38.658Z,601.00
2024-01-09T00:57:38.653Z,606.00
2024-01-09T00:58:38.765Z,602.00
2024-01-09T00:59:38.800Z,603.00
2024-01-09T01:00:38.821Z,605.00
2024-01-09T01:01:38.771Z,603.00
2024-01-09T01:02:38.812Z,603.00
2024-01-09T01:03:38.872Z,600.00
2024-01-09T01:04:38.868Z,602.00
2024-01-09T01:05:38.993Z,603.00
2024-01-09T01:06:38.888Z,601.00
2024-01-09T01:07:38.902Z,602.00
2024-01-09T01:08:39.133Z,601.00
2024-01-09T01:09:38.971Z,604.00
2024-01-09T01:10:38.981Z,600.00
2024-01-09T01:11:39.063Z,603.00
2024-01-09T01:12:39.065Z,606.00
2024-01-09T01:13:39.060Z,608.00
2024-01-09T01:14:39.430Z,602.00
2024-01-09T01:15:39.112Z,600.00
2024-01-09T01:16:39.124Z,605.00
2024-01-09T01:17:39.264Z,605.00
2024-01-09T01:18:39.279Z,601.00
2024-01-09T01:19:39.233Z,605.00
2024-01-09T01:20:39.294Z,604.00
2024-01-09T01:21:39.263Z,606.00
2024-01-09T01:22:39.277Z,603.00
2024-01-09T01:23:39.364Z,606.00
2024-01-09T01:24:39.337Z,605.00
2024-01-09T01:25:39.356Z,603.00
2024-01-09T01:26:39.397Z,602.00
2024-01-09T01:27:39.403Z,607.00
2024-01-09T01:28:39.433Z,604.00
2024-01-09T01:29:39.522Z,605.00
2024-01-09T01:30:39.515Z,608.00
2024-01-09T01:31:39.497Z,600.00
2024-01-09T01:32:39.598Z,604.00
2024-01-09T01:33:39.607Z,604.00
2024-01-09T01:34:39.805Z,604.00
2024-01-09T01:35:39.676Z,605.00
2024-01-09T01:36:39.624Z,605.00
2024-01-09T01:37:39.708Z,605.00
2024-01-09T01:38:39.679Z,600.00
2024-01-09T01:39:39.671Z,605.00
2024-01-09T01:40:39.720Z,605.00
2024-01-09T01:41:39.714Z,604.00
2024-01-09T01:42:39.731Z,602.00
2024-01-09T01:43:39.756Z,608.00
2024-01-09T01:44:39.827Z,602.00
2024-01-09T01:45:39.862Z,604.00
2024-01-09T01:46:39.823Z,606.00
2024-01-09T01:47:39.979Z,600.00
2024-01-09T01:48:39.970Z,604.00
2024-01-09T01:49:39.899Z,603.00
2024-01-09T01:50:39.940Z,603.00
2024-01-09T01:51:39.935Z,603.00
2024-01-09T01:52:39.965Z,601.00
2024-01-09T01:53:40.056Z,605.00
2024-01-09T01:54:40.010Z,604.00
2024-01-09T01:55:40.025Z,605.00
2024-01-09T01:56:40.157Z,603.00
2024-01-09T01:57:40.074Z,603.00
2024-01-09T01:58:40.102Z,603.00
2024-01-09T01:59:40.188Z,603.00
2024-01-09T02:00:40.186Z,603.00
2024-01-09T02:01:40.256Z,604.00
2024-01-09T02:02:40.287Z,603.00
2024-01-09T02:03:40.263Z,608.00
2024-01-09T02:04:40.266Z,603.00
2024-01-09T02:05:40.352Z,602.00
2024-01-09T02:06:40.322Z,602.00
2024-01-09T02:07:40.347Z,604.00
2024-01-09T02:08:40.430Z,603.00
2024-01-09T02:09:40.485Z,607.00
2024-01-09T02:10:40.455Z,604.00
2024-01-09T02:11:40.576Z,605.00
2024-01-09T02:12:40.489Z,606.00
2024-01-09T02:13:40.530Z,602.00
2024-01-09T02:14:40.640Z,603.00
2024-01-09T02:15:40.580Z,606.00
2024-01-09T02:16:40.625Z,604.00
2024-01-09T02:17:40.712Z,604.00
2024-01-09T02:18:40.685Z,604.00
2024-01-09T02:19:40.948Z,606.00
2024-01-09T02:20:40.736Z,601.00
2024-01-09T02:21:40.735Z,604.00
2024-01-09T02:22:40.748Z,606.00
2024-01-09T02:23:40.824Z,604.00
2024-01-09T02:24:40.796Z,605.00
2024-01-09T02:25:40.846Z,603.00
2024-01-09T02:26:54.381Z,605.00
2024-01-09T02:27:41.900Z,605.00
2024-01-09T02:28:40.813Z,606.00
2024-01-09T02:29:40.805Z,603.00
2024-01-09T02:30:40.849Z,605.00
2024-01-09T02:31:40.800Z,602.00
2024-01-09T02:32:40.913Z,603.00
2024-01-09T02:33:40.897Z,599.00
2024-01-09T02:34:40.878Z,601.00
2024-01-09T02:35:40.791Z,601.00
2024-01-09T02:36:40.800Z,603.00
2024-01-09T02:37:40.797Z,599.00
2024-01-09T02:38:40.838Z,606.00
2024-01-09T02:39:40.795Z,608.00
2024-01-09T02:40:40.800Z,604.00
2024-01-09T02:41:40.819Z,600.00
2024-01-09T02:42:40.798Z,602.00
2024-01-09T02:43:40.788Z,600.00
2024-01-09T02:44:40.886Z,600.00
2024-01-09T02:45:40.773Z,604.00
2024-01-09T02:46:40.752Z,603.00
2024-01-09T02:47:41.451Z,608.00
2024-01-09T02:48:40.905Z,602.00
2024-01-09T02:49:40.844Z,603.00
2024-01-09T02:50:40.848Z,602.00
2024-01-09T02:51:40.739Z,606.00
2024-01-09T02:52:40.743Z,604.00
2024-01-09T02:53:40.777Z,603.00
2024-01-09T02:54:40.738Z,600.00
2024-01-09T02:55:40.724Z,601.00
2024-01-09T02:56:40.754Z,603.00
2024-01-09T02:57:40.724Z,601.00
2024-01-09T02:58:40.690Z,605.00
2024-01-09T02:59:40.766Z,605.00
2024-01-09T03:00:40.758Z,603.00
2024-01-09T03:01:41.402Z,602.00
2024-01-09T03:02:40.788Z,602.00
2024-01-09T03:03:40.883Z,600.00
2024-01-09T03:04:40.786Z,607.00
2024-01-09T03:05:40.911Z,603.00
2024-01-09T03:06:41.044Z,602.00
2024-01-09T03:07:41.028Z,600.00
2024-01-09T03:08:41.073Z,606.00
2024-01-09T03:09:41.028Z,602.00
2024-01-09T03:10:41.093Z,601.00
2024-01-09T03:11:41.238Z,600.00
2024-01-09T03:12:41.197Z,603.00
2024-01-09T03:13:41.207Z,600.00
2024-01-09T03:14:41.356Z,605.00
2024-01-09T03:15:41.294Z,601.00
2024-01-09T03:16:41.311Z,602.00
2024-01-09T03:17:41.519Z,601.00
2024-01-09T03:18:41.445Z,601.00
2024-01-09T03:19:41.394Z,602.00
2024-01-09T03:20:41.462Z,601.00
2024-01-09T03:21:41.470Z,600.00
2024-01-09T03:22:41.515Z,604.00
2024-01-09T03:23:41.701Z,602.00
2024-01-09T03:24:41.644Z,601.00
2024-01-09T03:25:41.773Z,602.00
2024-01-09T03:26:41.839Z,604.00
2024-01-09T03:27:41.789Z,600.00
2024-01-09T03:28:41.834Z,600.00
2024-01-09T03:29:41.964Z,601.00
2024-01-09T03:30:42.032Z,601.00
2024-01-09T03:31:42.002Z,603.00
2024-01-09T03:32:42.253Z,601.00
2024-01-09T03:33:42.241Z,600.00
2024-01-09T03:34:43.427Z,602.00
2024-01-09T03:35:42.251Z,601.00
2024-01-09T03:36:42.285Z,603.00
2024-01-09T03:37:42.326Z,603.00
2024-01-09T03:38:42.446Z,604.00
2024-01-09T03:39:42.444Z,602.00
2024-01-09T03:40:42.541Z,602.00
2024-01-09T03:41:42.588Z,603.00
2024-01-09T03:42:42.586Z,603.00
2024-01-09T03:43:42.665Z,603.00
2024-01-09T03:44:42.813Z,601.00
2024-01-09T03:45:42.801Z,601.00
2024-01-09T03:46:42.842Z,600.00
2024-01-09T03:47:42.985Z,605.00
2024-01-09T03:48:43.045Z,604.00
2024-01-09T03:49:42.996Z,599.00
2024-01-09T03:50:43.496Z,605.00
2024-01-09T03:51:43.913Z,605.00
2024-01-09T03:52:43.159Z,605.00
2024-01-09T03:53:43.420Z,604.00
2024-01-09T03:54:43.273Z,603.00
2024-01-09T03:55:43.324Z,604.00
2024-01-09T03:56:43.406Z,602.00
2024-01-09T03:57:43.441Z,602.00
2024-01-09T03:58:43.577Z,605.00
2024-01-09T03:59:43.577Z,603.00
2024-01-09T04:00:43.666Z,603.00
2024-01-09T04:01:43.658Z,604.00
2024-01-09T04:02:43.776Z,602.00
2024-01-09T04:03:43.858Z,605.00
2024-01-09T04:04:43.825Z,602.00
2024-01-09T04:05:43.945Z,604.00
2024-01-09T04:06:44.057Z,600.00
2024-01-09T04:07:44.016Z,604.00
2024-01-09T04:08:44.208Z,601.00
2024-01-09T04:09:44.125Z,602.00
2024-01-09T04:10:44.185Z,602.00
2024-01-09T04:11:44.310Z,601.00
2024-01-09T04:12:44.266Z,603.00
2024-01-09T04:13:44.343Z,600.00
2024-01-09T04:14:44.385Z,603.00
2024-01-09T04:15:44.430Z,605.00
2024-01-09T04:16:44.480Z,603.00
2024-01-09T04:17:44.677Z,602.00
2024-01-09T04:18:44.699Z,606.00
2024-01-09T04:19:44.691Z,605.00
2024-01-09T04:20:44.757Z,604.00
2024-01-09T04:21:44.750Z,601.00
2024-01-09T04:22:45.411Z,602.00
2024-01-09T04:23:44.923Z,606.00
2024-01-09T04:24:45.071Z,603.00
2024-01-09T04:25:44.999Z,601.00
2024-01-09T04:26:45.120Z,605.00
2024-01-09T04:27:45.083Z,603.00
2024-01-09T04:28:45.159Z,604.00
2024-01-09T04:29:45.228Z,604.00
2024-01-09T04:30:45.292Z,602.00
2024-01-09T04:31:45.393Z,603.00
2024-01-09T04:32:45.456Z,603.00
2024-01-09T04:33:45.487Z,602.00
2024-01-09T04:34:45.472Z,602.00
2024-01-09T04:35:45.963Z,602.00
2024-01-09T04:36:45.563Z,602.00
2024-01-09T04:37:45.612Z,602.00
2024-01-09T04:38:46.020Z,602.00
2024-01-09T04:39:45.716Z,601.00
2024-01-09T04:40:45.764Z,604.00
2024-01-09T04:41:45.895Z,600.00
2024-01-09T04:42:46.412Z,603.00
2024-01-09T04:43:45.915Z,603.00
2024-01-09T04:44:46.060Z,600.00
2024-01-09T04:45:46.087Z,603.00
2024-01-09T04:46:46.128Z,603.00
2024-01-09T04:47:46.251Z,602.00
2024-01-09T04:48:46.354Z,602.00
2024-01-09T04:49:46.231Z,605.00
2024-01-09T04:50:46.329Z,602.00
2024-01-09T04:51:46.339Z,601.00
2024-01-09T04:52:46.391Z,604.00
2024-01-09T04:53:46.515Z,601.00
2024-01-09T04:54:46.478Z,601.00
2024-01-09T04:55:46.541Z,603.00
2024-01-09T04:56:56.640Z,600.00
2024-01-09T04:57:53.911Z,600.00
2024-01-09T04:58:53.929Z,600.00
2024-01-09T04:59:53.995Z,600.00
2024-01-09T05:00:53.976Z,600.00
2024-01-09T05:01:54.000Z,600.00
2024-01-09T05:02:54.239Z,602.00
2024-01-09T05:03:54.098Z,605.00
2024-01-09T05:04:54.070Z,600.00
2024-01-09T05:05:54.520Z,602.00
2024-01-09T05:06:54.088Z,600.00
2024-01-09T05:07:54.112Z,602.00
2024-01-09T05:08:54.153Z,601.00
2024-01-09T05:09:54.149Z,603.00
2024-01-09T05:10:54.184Z,602.00
2024-01-09T05:11:54.242Z,601.00
2024-01-09T05:12:54.215Z,601.00
2024-01-09T05:13:54.244Z,601.00
2024-01-09T05:14:54.335Z,605.00
2024-01-09T05:15:54.283Z,605.00
2024-01-09T05:16:54.317Z,604.00
2024-01-09T05:17:54.405Z,604.00
2024-01-09T05:18:54.492Z,603.00
2024-01-09T05:19:57.131Z,600.00
2024-01-09T05:20:54.474Z,600.00
2024-01-09T05:21:54.442Z,601.00
2024-01-09T05:22:54.431Z,602.00
2024-01-09T05:23:54.497Z,604.00
2024-01-09T05:24:54.484Z,602.00
2024-01-09T05:25:54.513Z,601.00
2024-01-09T05:26:54.632Z,602.00
2024-01-09T05:27:54.541Z,601.00
2024-01-09T05:28:54.558Z,601.00
2024-01-09T05:29:54.637Z,604.00
2024-01-09T05:30:54.660Z,605.00
2024-01-09T05:31:54.768Z,601.00
2024-01-09T05:32:55.661Z,603.00
2024-01-09T05:33:54.680Z,600.00
2024-01-09T05:34:54.760Z,602.00
2024-01-09T05:35:54.682Z,600.00
2024-01-09T05:36:54.706Z,603.00
2024-01-09T05:37:58.703Z,603.00
2024-01-09T05:38:55.885Z,603.00
2024-01-09T05:39:54.876Z,603.00
2024-01-09T05:40:54.793Z,605.00
2024-01-09T05:41:54.832Z,604.00
2024-01-09T05:42:54.821Z,606.00
2024-01-09T05:43:54.856Z,603.00
2024-01-09T05:44:54.881Z,604.00
2024-01-09T05:45:54.915Z,604.00
2024-01-09T05:46:55.086Z,607.00
2024-01-09T05:47:55.057Z,602.00
2024-01-09T05:48:55.175Z,602.00
2024-01-09T05:49:55.059Z,602.00
2024-01-09T05:50:55.195Z,602.00
2024-01-09T05:51:55.030Z,602.00
2024-01-09T05:52:55.036Z,605.00
2024-01-09T05:53:55.248Z,608.00
2024-01-09T05:54:55.133Z,605.00
2024-01-09T05:55:55.161Z,603.00
2024-01-09T05:56:55.285Z,602.00
2024-01-09T05:57:55.187Z,602.00
2024-01-09T05:58:55.166Z,600.00
2024-01-09T05:59:55.215Z,607.00
2024-01-09T06:00:55.525Z,605.00
2024-01-09T06:01:55.265Z,605.00
2024-01-09T06:02:55.350Z,606.00
2024-01-09T06:03:55.414Z,603.00
2024-01-09T06:04:55.425Z,603.00
2024-01-09T06:05:55.585Z,604.00
2024-01-09T06:06:55.570Z,603.00
2024-01-09T06:07:55.543Z,603.00
2024-01-09T06:08:55.704Z,607.00
2024-01-09T06:09:55.637Z,605.00
2024-01-09T06:10:55.672Z,600.00
2024-01-09T06:11:55.736Z,606.00
2024-01-09T06:12:55.750Z,602.00
2024-01-09T06:13:55.802Z,603.00
2024-01-09T06:14:56.558Z,604.00
2024-01-09T06:15:55.878Z,601.00
2024-01-09T06:16:55.897Z,606.00
2024-01-09T06:17:56.082Z,604.00
2024-01-09T06:18:56.253Z,602.00
2024-01-09T06:19:56.060Z,603.00
2024-01-09T06:20:56.153Z,603.00
2024-01-09T06:21:56.111Z,602.00
2024-01-09T06:22:56.168Z,604.00
2024-01-09T06:23:56.320Z,603.00
2024-01-09T06:24:56.265Z,605.00
2024-01-09T06:25:56.300Z,609.00
2024-01-09T06:26:56.378Z,609.00
2024-01-09T06:27:56.401Z,608.00
2024-01-09T06:28:56.406Z,609.00
2024-01-09T06:29:56.487Z,617.00
2024-01-09T06:30:56.521Z,624.00
2024-01-09T06:31:56.520Z,629.00
2024-01-09T06:32:56.666Z,631.00
2024-01-09T06:33:57.652Z,639.00
2024-01-09T06:34:56.605Z,647.00
2024-01-09T06:35:56.836Z,661.00
2024-01-09T06:36:57.584Z,667.00
2024-01-09T06:37:56.861Z,687.00
2024-01-09T06:38:57.064Z,723.00
2024-01-09T06:39:57.014Z,743.00
2024-01-09T06:40:57.089Z,759.00
2024-01-09T06:41:57.225Z,790.00
2024-01-09T06:42:57.281Z,809.00
2024-01-09T06:43:57.293Z,838.00
2024-01-09T06:44:57.518Z,858.00
2024-01-09T06:45:57.411Z,872.00
2024-01-09T06:46:57.461Z,907.00
2024-01-09T06:47:57.650Z,932.00
2024-01-09T06:48:58.638Z,948.00
2024-01-09T06:49:57.696Z,977.00
2024-01-09T06:50:57.694Z,992.00
2024-01-09T06:51:57.707Z,1017.00
2024-01-09T06:52:57.735Z,1038.00
2024-01-09T06:53:57.833Z,1059.00
2024-01-09T06:54:57.845Z,1075.00
2024-01-09T06:55:57.877Z,1116.00
2024-01-09T06:56:57.963Z,1138.00
2024-01-09T06:57:57.965Z,1159.00
2024-01-09T06:58:58.042Z,1172.00
2024-01-09T06:59:58.099Z,1187.00
2024-01-09T07:00:58.188Z,1213.00
2024-01-09T07:01:58.150Z,1222.00
2024-01-09T07:02:58.359Z,1253.00
2024-01-09T07:03:58.407Z,1263.00
2024-01-09T07:04:58.353Z,1287.00
2024-01-09T07:05:58.376Z,1306.00
2024-01-09T07:07:00.530Z,1307.00
2024-01-09T07:07:58.333Z,1312.00
2024-01-09T07:08:58.467Z,1327.00
2024-01-09T07:09:58.368Z,1348.00
2024-01-09T07:10:59.019Z,1383.00
2024-01-09T07:11:58.531Z,1410.00
2024-01-09T07:12:58.372Z,1427.00
2024-01-09T07:13:59.029Z,1443.00
2024-01-09T07:14:58.481Z,1460.00
2024-01-09T07:15:58.379Z,1473.00
2024-01-09T07:16:58.946Z,1481.00
2024-01-09T07:17:59.161Z,1502.00
2024-01-09T07:18:58.507Z,1517.00
2024-01-09T07:19:58.412Z,1540.00
2024-01-09T07:20:58.549Z,1567.00
2024-01-09T07:21:58.490Z,1574.00
2024-01-09T07:23:05.064Z,1577.00
2024-01-09T07:23:59.631Z,1578.00
2024-01-09T07:24:59.523Z,1581.00
2024-01-09T07:25:58.550Z,1580.00
2024-01-09T07:26:58.581Z,1593.00
2024-01-09T07:27:59.523Z,1615.00
2024-01-09T07:29:00.577Z,1629.00
2024-01-09T07:29:58.619Z,1646.00
2024-01-09T07:30:58.618Z,1664.00
2024-01-09T07:31:58.588Z,1670.00
2024-01-09T07:32:58.737Z,1699.00
2024-01-09T07:33:58.678Z,1708.00
2024-01-09T07:34:58.619Z,1711.00
2024-01-09T07:35:58.624Z,1728.00
2024-01-09T07:36:58.575Z,1713.00
2024-01-09T07:37:58.579Z,1742.00
2024-01-09T07:38:58.658Z,1751.00
2024-01-09T07:39:58.660Z,1770.00
2024-01-09T07:41:00.780Z,1758.00
2024-01-09T07:41:58.601Z,1779.00
2024-01-09T07:43:01.060Z,1784.00
2024-01-09T07:43:58.650Z,1785.00
2024-01-09T07:44:58.631Z,1787.00
2024-01-09T07:45:58.606Z,1792.00
2024-01-09T07:46:58.602Z,1809.00
2024-01-09T07:47:58.719Z,1808.00
2024-01-09T07:48:58.705Z,1825.00
2024-01-09T07:49:58.636Z,1847.00
2024-01-09T07:50:58.696Z,1839.00
2024-01-09T07:51:58.617Z,1851.00
2024-01-09T07:52:58.918Z,1858.00
2024-01-09T07:53:58.684Z,1866.00
2024-01-09T07:54:58.638Z,1874.00
2024-01-09T07:55:59.060Z,1868.00
2024-01-09T07:56:58.691Z,1855.00
2024-01-09T07:57:58.636Z,1884.00
2024-01-09T07:58:58.637Z,1878.00
2024-01-09T07:59:58.726Z,1879.00
2024-01-09T08:00:58.685Z,1870.00
2024-01-09T08:01:58.634Z,1884.00
2024-01-09T08:02:58.802Z,1881.00
2024-01-09T08:03:59.661Z,1882.00
2024-01-09T08:04:58.633Z,1887.00
2024-01-09T08:05:58.714Z,1892.00
2024-01-09T08:06:58.694Z,1912.00
2024-01-09T08:07:58.626Z,1933.00
2024-01-09T08:08:58.672Z,1930.00
2024-01-09T08:09:58.617Z,1911.00
2024-01-09T08:10:58.623Z,1920.00
2024-01-09T08:11:58.708Z,1926.00
2024-01-09T08:12:58.623Z,1944.00
2024-01-09T08:13:58.624Z,1939.00
2024-01-09T08:14:58.693Z,1958.00
2024-01-09T08:15:58.677Z,1927.00
2024-01-09T08:16:58.761Z,1921.00
2024-01-09T08:17:58.832Z,1918.00
2024-01-09T08:18:58.869Z,1899.00
2024-01-09T08:19:58.913Z,1862.00
2024-01-09T08:20:58.953Z,1854.00
2024-01-09T08:21:58.881Z,1860.00
2024-01-09T08:22:58.905Z,1865.00
2024-01-09T08:23:58.981Z,1833.00
2024-01-09T08:24:58.923Z,1871.00
2024-01-09T08:25:58.966Z,1872.00
2024-01-09T08:26:59.080Z,1887.00
2024-01-09T08:27:59.071Z,1888.00
2024-01-09T08:28:59.132Z,1930.00
2024-01-09T08:29:59.267Z,1946.00
2024-01-09T08:30:59.311Z,1932.00
2024-01-09T08:31:59.332Z,1969.00
2024-01-09T08:32:59.422Z,1979.00
2024-01-09T08:33:59.523Z,1967.00
2024-01-09T08:35:00.086Z,1991.00
2024-01-09T08:36:01.125Z,1984.00
2024-01-09T08:36:59.597Z,1985.00
2024-01-09T08:37:59.703Z,2010.00
2024-01-09T08:38:59.826Z,2020.00
2024-01-09T08:39:59.880Z,2020.00
2024-01-09T08:40:59.855Z,2040.00
2024-01-09T08:41:59.966Z,2025.00
2024-01-09T08:42:59.969Z,2042.00
2024-01-09T08:44:00.038Z,2048.00
2024-01-09T08:45:00.188Z,2071.00
2024-01-09T08:46:00.185Z,2063.00
2024-01-09T08:47:00.237Z,2086.00
2024-01-09T08:48:00.458Z,2094.00
2024-01-09T08:49:00.386Z,2087.00
2024-01-09T08:50:00.455Z,2105.00
2024-01-09T08:51:00.453Z,2106.00
2024-01-09T08:52:00.483Z,2123.00
2024-01-09T08:53:00.537Z,2105.00
2024-01-09T08:54:00.755Z,2111.00
2024-01-09T08:55:00.630Z,2126.00
2024-01-09T08:56:01.069Z,2112.00
2024-01-09T08:57:00.751Z,2112.00
2024-01-09T08:58:00.782Z,2116.00
2024-01-09T08:59:00.824Z,2134.00
2024-01-09T09:00:00.950Z,2139.00
2024-01-09T09:01:00.916Z,2146.00
2024-01-09T09:02:01.016Z,2150.00
2024-01-09T09:03:01.184Z,2160.00
2024-01-09T09:04:58.771Z,600.00
2024-01-09T09:05:59.635Z,600.00
2024-01-09T09:06:58.833Z,600.00
2024-01-09T09:07:58.801Z,600.00
2024-01-09T09:08:58.767Z,600.00
2024-01-09T09:09:58.702Z,602.00
2024-01-09T09:10:59.594Z,607.00
2024-01-09T09:11:58.804Z,612.00
2024-01-09T09:12:58.689Z,599.00
2024-01-09T09:13:58.663Z,553.00
2024-01-09T09:14:58.743Z,548.00
2024-01-09T09:15:58.679Z,429.00
2024-01-09T09:16:58.668Z,465.00
2024-01-09T09:17:58.857Z,429.00
2024-01-09T09:18:58.875Z,435.00
2024-01-09T09:19:58.711Z,405.00
2024-01-09T09:20:58.809Z,414.00
2024-01-09T09:21:58.731Z,415.00
2024-01-09T09:22:58.750Z,458.00
2024-01-09T09:23:58.901Z,487.00
2024-01-09T09:24:58.787Z,508.00
2024-01-09T09:25:59.593Z,544.00
2024-01-09T09:26:58.942Z,584.00
2024-01-09T09:27:58.882Z,600.00
2024-01-09T09:29:04.354Z,602.00
2024-01-09T09:29:59.917Z,602.00
2024-01-09T09:30:59.123Z,605.00
2024-01-09T09:31:58.902Z,608.00
2024-01-09T09:32:59.047Z,611.00
2024-01-09T09:33:59.000Z,633.00
2024-01-09T09:34:58.952Z,626.00
2024-01-09T09:35:58.968Z,634.00
2024-01-09T09:36:58.897Z,648.00
2024-01-09T09:37:58.903Z,654.00
2024-01-09T09:38:58.933Z,661.00
2024-01-09T09:39:58.903Z,672.00
2024-01-09T09:40:58.906Z,693.00
2024-01-09T09:41:59.292Z,714.00
2024-01-09T09:42:59.023Z,745.00
2024-01-09T09:43:59.154Z,770.00
2024-01-09T09:44:59.186Z,779.00
2024-01-09T09:45:59.739Z,796.00
2024-01-09T09:46:59.180Z,800.00
2024-01-09T09:48:00.339Z,801.00
2024-01-09T09:48:59.380Z,804.00
2024-01-09T09:49:59.196Z,818.00
2024-01-09T09:50:59.206Z,844.00
2024-01-09T09:51:59.216Z,881.00
2024-01-09T09:52:59.137Z,893.00
2024-01-09T09:53:59.221Z,903.00
2024-01-09T09:54:59.106Z,927.00
2024-01-09T09:55:59.087Z,922.00
2024-01-09T09:56:59.195Z,937.00
2024-01-09T09:57:59.067Z,955.00
2024-01-09T09:58:59.041Z,959.00
2024-01-09T09:59:59.141Z,985.00
2024-01-09T10:00:59.041Z,1006.00
2024-01-09T10:01:59.024Z,1012.00
2024-01-09T10:02:59.041Z,1032.00
2024-01-09T10:03:59.005Z,1033.00
2024-01-09T10:04:58.938Z,1049.00
2024-01-09T10:05:59.041Z,1084.00
2024-01-09T10:06:59.469Z,1111.00
2024-01-09T10:07:58.891Z,1113.00
2024-01-09T10:08:59.132Z,1135.00
2024-01-09T10:09:58.960Z,1137.00
2024-01-09T10:10:58.994Z,1160.00
2024-01-09T10:11:59.089Z,1168.00
2024-01-09T10:12:59.089Z,1185.00
2024-01-09T10:13:59.209Z,1193.00
2024-01-09T10:14:59.229Z,1221.00
2024-01-09T10:15:59.281Z,1252.00
2024-01-09T10:16:59.220Z,1215.00
2024-01-09T10:17:59.421Z,1222.00
2024-01-09T10:18:59.460Z,1214.00
2024-01-09T10:19:59.381Z,1229.00
2024-01-09T10:20:59.441Z,1228.00
2024-01-09T10:21:59.428Z,1233.00
2024-01-09T10:22:59.475Z,1229.00
2024-01-09T10:23:59.927Z,1234.00
2024-01-09T10:24:59.562Z,1222.00
2024-01-09T10:25:59.604Z,1229.00
2024-01-09T10:26:59.686Z,1228.00
2024-01-09T10:27:59.680Z,1225.00
2024-01-09T10:28:59.730Z,1228.00
2024-01-09T10:29:59.817Z,1235.00
2024-01-09T10:30:59.835Z,1227.00
2024-01-09T10:31:59.873Z,1230.00
2024-01-09T10:32:59.912Z,1223.00
2024-01-09T10:33:59.930Z,1230.00
2024-01-09T10:34:59.882Z,1209.00
2024-01-09T10:36:00.575Z,1209.00
2024-01-09T10:36:59.918Z,1214.00
2024-01-09T10:38:00.913Z,1198.00
2024-01-09T10:38:59.991Z,1198.00
2024-01-09T10:40:00.050Z,1198.00
2024-01-09T10:41:00.036Z,1196.00
2024-01-09T10:42:00.124Z,1189.00
2024-01-09T10:43:00.142Z,1186.00
2024-01-09T10:44:00.096Z,1175.00
2024-01-09T10:45:00.201Z,1171.00
2024-01-09T10:46:00.204Z,1159.00
2024-01-09T10:47:00.165Z,1168.00
2024-01-09T10:48:00.249Z,1153.00
2024-01-09T10:49:00.301Z,1150.00
2024-01-09T10:50:00.412Z,1151.00
2024-01-09T10:51:00.361Z,1142.00
2024-01-09T10:52:00.273Z,1144.00
2024-01-09T10:53:00.925Z,1127.00
2024-01-09T10:54:00.433Z,1141.00
2024-01-09T10:55:00.400Z,1127.00
2024-01-09T10:56:00.458Z,1131.00
2024-01-09T10:57:00.487Z,1119.00
2024-01-09T10:58:00.523Z,1105.00
2024-01-09T10:59:00.560Z,1111.00
2024-01-09T11:00:01.658Z,1106.00
2024-01-09T11:01:00.633Z,1107.00
2024-01-09T11:02:00.657Z,1090.00
2024-01-09T11:03:00.728Z,1091.00
2024-01-09T11:04:00.790Z,1086.00
2024-01-09T11:05:01.467Z,1084.00
2024-01-09T11:06:01.263Z,1065.00
2024-01-09T11:07:00.765Z,1059.00
2024-01-09T11:08:00.772Z,1054.00
2024-01-09T11:09:00.833Z,1050.00
2024-01-09T11:10:00.712Z,1027.00
2024-01-09T11:11:00.731Z,1025.00
2024-01-09T11:12:00.798Z,1026.00
2024-01-09T11:13:00.712Z,1022.00
2024-01-09T11:14:00.687Z,1023.00
2024-01-09T11:15:02.539Z,1008.00
2024-01-09T11:16:00.660Z,996.00
2024-01-09T11:17:00.642Z,992.00
2024-01-09T11:18:00.743Z,1000.00
2024-01-09T11:19:01.479Z,995.00
2024-01-09T11:20:00.725Z,990.00
2024-01-09T11:21:00.726Z,978.00
2024-01-09T11:22:00.683Z,973.00
2024-01-09T11:23:00.699Z,972.00
2024-01-09T11:24:00.873Z,960.00
2024-01-09T11:25:00.645Z,953.00
2024-01-09T11:26:00.635Z,947.00
2024-01-09T11:27:00.675Z,946.00
2024-01-09T11:28:00.647Z,938.00
2024-01-09T11:29:00.780Z,928.00
2024-01-09T11:30:00.717Z,937.00
2024-01-09T11:31:00.679Z,931.00
2024-01-09T11:32:01.439Z,923.00
2024-01-09T11:33:01.537Z,922.00
2024-01-09T11:34:00.707Z,916.00
2024-01-09T11:35:00.612Z,918.00
2024-01-09T11:36:01.015Z,908.00
2024-01-09T11:37:00.591Z,913.00
2024-01-09T11:38:00.613Z,895.00
2024-01-09T11:39:00.659Z,897.00
2024-01-09T11:40:00.572Z,894.00
2024-01-09T11:41:00.585Z,891.00
2024-01-09T11:42:00.668Z,877.00
2024-01-09T11:43:00.585Z,885.00
2024-01-09T11:44:00.626Z,876.00
2024-01-09T11:45:00.774Z,871.00
2024-01-09T11:46:00.612Z,868.00
2024-01-09T11:47:00.628Z,873.00
2024-01-09T11:48:00.738Z,861.00
2024-01-09T11:49:00.706Z,864.00
2024-01-09T11:50:01.499Z,845.00
2024-01-09T11:51:01.429Z,844.00
2024-01-09T11:52:00.643Z,849.00
2024-01-09T11:53:00.638Z,846.00
2024-01-09T11:54:00.701Z,832.00
2024-01-09T11:55:00.727Z,839.00
2024-01-09T11:56:00.738Z,833.00
2024-01-09T11:57:00.923Z,825.00
2024-01-09T11:58:00.681Z,816.00
2024-01-09T11:59:00.674Z,821.00
2024-01-09T12:00:01.184Z,806.00
2024-01-09T12:01:00.697Z,798.00
2024-01-09T12:02:00.671Z,803.00
2024-01-09T12:03:00.714Z,795.00
2024-01-09T12:04:00.850Z,789.00
2024-01-09T12:05:01.522Z,780.00
2024-01-09T12:06:00.815Z,785.00
2024-01-09T12:07:00.713Z,777.00
2024-01-09T12:08:00.656Z,769.00
2024-01-09T12:09:01.357Z,757.00
2024-01-09T12:10:00.762Z,757.00
2024-01-09T12:11:01.452Z,749.00
2024-01-09T12:12:00.823Z,750.00
2024-01-09T12:13:00.584Z,741.00
2024-01-09T12:14:00.652Z,738.00
2024-01-09T12:15:00.702Z,729.00
2024-01-09T12:16:00.546Z,724.00
2024-01-09T12:17:00.532Z,716.00
2024-01-09T12:18:00.635Z,721.00
2024-01-09T12:19:01.041Z,715.00
2024-01-09T12:20:00.517Z,709.00
2024-01-09T12:21:00.674Z,704.00
2024-01-09T12:22:00.461Z,708.00
2024-01-09T12:23:00.502Z,697.00
2024-01-09T12:25:00.476Z,694.00